Terminal Aerodrome Forecast
Issued by NWS

Home | Current Version | Previous Version | Text Only | Print | Product List | Glossary Off
Versions: 1 2 3 4 5 6 7 8 9 10 11 12 13 14 15 16 17 18 19 20 21 22 23

168
FTUS43 KBIS 180526
TAFMOT
TAF
KMOT 180526Z 1806/1906 15005KT P6SM OVC100
     FM181300 VRB03KT P6SM OVC035
     FM181600 33005KT P6SM OVC080=

USA.gov is the U.S. government's official web portal to all federal, state and local government web resources and services.